Time;durP1;ratioP1;P1;durP2;ratioP2;P2;SDS_P1;SDS_P2;PMS_P1;PMS_P2;Temp;Humidity;BMP_temperature;BMP_pressure;BME280_temperature;BME280_humidity;BME280_pressure;Samples;Min_cycle;Max_cycle;Signal;HPM_P1;HPM_P2
2023/02/02 06:13:02;;;;;;;1.02;0.40;;;;;;;2.58;97.58;98212.26;1673791;81;21225;-96
2023/02/02 06:18:49;;;;;;;0.80;0.42;;;;;;;2.59;97.46;98220.37;1645896;81;21208;-92
2023/02/02 06:25:34;;;;;;;2.15;0.60;;;;;;;2.65;97.41;98244.61;1615937;87;21023;-94
2023/02/02 06:28:43;;;;;;;1.25;0.70;;;;;;;2.63;97.21;98246.39;1608074;84;21259;-96
2023/02/02 06:31:17;;;;;;;1.42;0.90;;;;;;;2.60;97.11;98259.39;1643975;85;21022;-96
2023/02/02 06:33:42;;;;;;;1.37;0.80;;;;;;;2.60;97.08;98265.84;1641588;84;21174;-96
2023/02/02 06:38:50;;;;;;;1.15;1.00;;;;;;;2.65;97.17;98269.09;1617896;83;21773;-94
2023/02/02 06:41:35;;;;;;;2.35;0.90;;;;;;;2.66;97.11;98287.50;1628336;86;21053;-91
2023/02/02 06:43:55;;;;;;;1.02;0.80;;;;;;;2.67;97.06;98295.19;1671520;84;20993;-90
2023/02/02 06:46:21;;;;;;;1.00;0.78;;;;;;;2.68;97.06;98309.74;1670910;84;21027;-96
2023/02/02 06:48:48;;;;;;;1.27;0.78;;;;;;;2.69;96.90;98299.02;1673107;84;20979;-96
2023/02/02 06:51:15;;;;;;;1.80;0.83;;;;;;;2.63;96.65;98310.81;1670598;85;20973;-93
2023/02/02 06:53:41;;;;;;;1.27;0.90;;;;;;;2.58;96.73;98308.89;1669353;84;21557;-92
2023/02/02 06:56:11;;;;;;;1.10;0.70;;;;;;;2.57;96.73;98326.52;1648341;85;21017;-95
2023/02/02 06:58:41;;;;;;;1.45;1.00;;;;;;;2.57;96.80;98326.52;1674219;84;20991;-92
2023/02/02 07:01:25;;;;;;;1.70;1.40;;;;;;;2.61;96.90;98337.11;1691666;81;20965;-96
2023/02/02 07:03:58;;;;;;;1.30;1.20;;;;;;;2.63;96.80;98352.05;1743872;80;21004;-96
2023/02/02 07:06:27;;;;;;;3.17;1.80;;;;;;;2.60;96.56;98349.59;1719932;82;21137;-93
2023/02/02 07:08:55;;;;;;;2.47;1.60;;;;;;;2.59;96.62;98353.07;1691412;84;21847;-93
2023/02/02 07:11:25;;;;;;;4.03;1.77;;;;;;;2.55;96.47;98361.80;1688455;83;21032;-95
2023/02/02 07:14:08;;;;;;;2.75;1.67;;;;;;;2.51;96.39;98367.97;1680276;84;21026;-95
2023/02/02 07:16:41;;;;;;;2.80;1.55;;;;;;;2.50;96.48;98379.19;1745617;80;21021;-94
2023/02/02 07:19:14;;;;;;;2.10;1.75;;;;;;;2.54;96.55;98383.31;1735978;82;21530;-96
2023/02/02 07:21:42;;;;;;;5.40;1.57;;;;;;;2.50;96.34;98399.80;1716824;82;21002;-94
2023/02/02 07:24:09;;;;;;;2.33;1.25;;;;;;;2.48;96.44;98404.98;1744874;76;21556;-96
2023/02/02 07:26:36;;;;;;;4.58;1.67;;;;;;;2.56;96.63;98408.59;1739392;80;21058;-96
2023/02/02 07:29:03;;;;;;;3.42;1.42;;;;;;;2.60;96.66;98413.56;1739169;82;21050;-95
2023/02/02 07:31:29;;;;;;;3.65;1.57;;;;;;;2.60;96.43;98421.74;1688722;83;21733;-96
2023/02/02 07:33:56;;;;;;;2.53;1.40;;;;;;;2.61;96.40;98420.87;1740980;82;20962;-95
2023/02/02 07:36:24;;;;;;;2.98;1.60;;;;;;;2.62;96.37;98427.23;1737608;81;20978;-93
2023/02/02 07:39:01;;;;;;;4.55;1.77;;;;;;;2.66;96.40;98431.83;1684129;83;21066;-92
2023/02/02 07:41:27;;;;;;;4.40;1.92;;;;;;;2.68;96.44;98441.64;1709674;81;21050;-95
2023/02/02 07:43:53;;;;;;;4.27;1.73;;;;;;;2.71;96.54;98445.39;1730105;81;21002;-95
2023/02/02 07:46:24;;;;;;;2.77;1.70;;;;;;;2.73;96.40;98451.34;1734168;82;21054;-95
2023/02/02 07:49:01;;;;;;;2.33;1.45;;;;;;;2.79;96.41;98458.84;1720219;81;21499;-95
2023/02/02 07:51:27;;;;;;;2.58;1.70;;;;;;;2.87;96.43;98462.45;1727598;82;21695;-96
2023/02/02 07:53:57;;;;;;;4.10;1.87;;;;;;;2.93;96.43;98467.83;1732901;81;21487;-91
2023/02/02 07:56:28;;;;;;;3.12;1.50;;;;;;;2.99;96.46;98477.91;1722726;81;21011;-92
2023/02/02 07:58:59;;;;;;;3.02;1.70;;;;;;;3.06;96.44;98483.25;1731842;81;20939;-94
2023/02/02 08:01:30;;;;;;;3.20;1.72;;;;;;;3.12;96.38;98484.31;1649210;85;21005;-95
2023/02/02 08:03:59;;;;;;;3.40;1.50;;;;;;;3.20;96.36;98490.48;1653326;86;21475;-94
2023/02/02 08:09:49;;;;;;;4.85;1.52;;;;;;;3.36;96.38;98485.98;1687537;81;21633;-93
2023/02/02 08:12:22;;;;;;;3.80;1.50;;;;;;;3.39;96.02;98507.39;1690271;82;21053;-94
2023/02/02 08:15:26;;;;;;;3.37;1.40;;;;;;;3.40;96.04;98511.67;1718829;81;21018;-94
2023/02/02 08:18:02;;;;;;;;;;;;;;;;;;;;;
2023/02/02 08:25:52;;;;;;;2.12;0.80;;;;;;;3.04;95.35;98557.25;1648973;84;21655;-94
2023/02/02 08:28:09;;;;;;;0.95;0.80;;;;;;;2.87;95.06;98566.86;1651797;84;20999;-93
2023/02/02 08:35:05;;;;;;;1.90;0.70;;;;;;;2.80;95.35;98573.97;1600219;84;21187;-95
2023/02/02 08:37:34;;;;;;;2.30;0.70;;;;;;;2.85;95.41;98577.21;1591348;88;20998;-95
2023/02/02 08:40:01;;;;;;;2.22;0.80;;;;;;;2.94;95.40;98581.66;1612697;86;21063;-96
2023/02/02 08:42:40;;;;;;;2.05;1.20;;;;;;;2.99;95.45;98582.34;1613471;86;20985;-95
2023/02/02 08:45:09;;;;;;;2.92;1.30;;;;;;;3.06;95.39;98598.02;1633833;85;21075;-95
2023/02/02 08:47:35;;;;;;;1.17;0.70;;;;;;;3.11;95.44;98597.41;1635402;84;21047;-92
2023/02/02 08:50:09;;;;;;;2.87;1.00;;;;;;;3.16;95.44;98612.25;1690487;82;21006;-95
2023/02/02 08:52:37;;;;;;;5.12;1.02;;;;;;;3.20;95.31;98613.02;1699333;83;20983;-95
2023/02/02 08:55:08;;;;;;;2.37;1.10;;;;;;;3.25;95.35;98622.28;1698696;82;20951;-92
2023/02/02 08:57:34;;;;;;;4.50;1.85;;;;;;;3.28;95.35;98621.33;1746914;80;21033;-96
2023/02/02 09:00:10;;;;;;;1.67;0.93;;;;;;;3.30;95.29;98615.19;1741683;81;20922;-96
2023/02/02 09:02:45;;;;;;;3.87;1.05;;;;;;;3.33;95.28;98635.75;1749994;78;21073;-94
2023/02/02 09:05:16;;;;;;;2.20;1.00;;;;;;;3.33;95.21;98635.75;1772823;78;20931;-96
2023/02/02 09:07:48;;;;;;;1.87;0.78;;;;;;;3.33;95.14;98640.91;1771081;77;21047;-91
2023/02/02 09:10:18;;;;;;;2.02;0.95;;;;;;;3.32;94.91;98637.91;1763584;78;20967;-95
2023/02/02 09:12:50;;;;;;;1.32;0.62;;;;;;;3.32;94.92;98646.95;1766707;79;20933;-92
2023/02/02 09:15:19;;;;;;;5.28;1.40;;;;;;;3.35;94.93;98657.16;1728571;81;21000;-96
2023/02/02 09:17:52;;;;;;;1.67;0.95;;;;;;;3.42;94.90;98664.67;1766860;79;20899;-94
2023/02/02 09:20:31;;;;;;;;;;;;;;;;;;;;;
2023/02/02 09:22:56;;;;;;;2.55;1.00;;;;;;;3.57;95.09;98681.77;1735258;80;21432;-92
2023/02/02 09:25:24;;;;;;;3.47;1.00;;;;;;;3.78;95.22;98691.79;1759828;80;21604;-91
2023/02/02 09:27:51;;;;;;;2.27;1.00;;;;;;;3.85;94.76;98691.56;1759770;80;21110;-96
2023/02/02 09:30:18;;;;;;;2.42;1.45;;;;;;;3.84;94.41;98687.27;1757458;79;21078;-95
2023/02/02 09:32:49;;;;;;;2.95;1.40;;;;;;;3.79;94.20;98699.92;1755970;79;21112;-95
2023/02/02 09:35:16;;;;;;;1.70;1.10;;;;;;;3.67;94.06;98706.82;1752402;79;20986;-95
2023/02/02 09:37:44;;;;;;;2.58;1.70;;;;;;;3.63;94.06;98707.81;1751565;79;20999;-90
2023/02/02 09:40:17;;;;;;;3.67;1.55;;;;;;;3.62;94.21;98712.59;1755697;79;183929;-93
2023/02/02 09:43:06;;;;;;;3.10;1.30;;;;;;;3.64;94.15;98714.67;1725996;81;21006;-94
2023/02/02 09:45:44;;;;;;;2.75;1.12;;;;;;;3.92;94.91;98726.58;1715712;81;21179;-92
2023/02/02 09:48:43;;;;;;;4.00;1.47;;;;;;;4.16;94.68;98724.85;1720611;81;21457;-91
2023/02/02 09:51:24;;;;;;;3.72;1.62;;;;;;;4.22;94.45;98731.91;1738427;81;20966;-95
2023/02/02 09:54:13;;;;;;;2.67;1.30;;;;;;;4.35;94.45;98738.77;1705681;82;21481;-93
2023/02/02 09:56:49;;;;;;;3.37;1.50;;;;;;;4.35;94.04;98737.94;1681909;84;20993;-95
2023/02/02 09:59:28;;;;;;;5.17;1.92;;;;;;;4.22;93.75;98748.70;1678680;84;21005;-91
2023/02/02 10:01:59;;;;;;;2.40;1.50;;;;;;;4.20;93.75;98745.36;1684412;82;20957;-96
2023/02/02 10:04:39;;;;;;;1.42;0.90;;;;;;;4.06;93.49;98751.45;1680828;83;20997;-92
2023/02/02 10:07:37;;;;;;;1.60;0.90;;;;;;;3.76;93.04;98750.37;1683104;82;21092;-94
2023/02/02 10:10:28;;;;;;;1.37;0.80;;;;;;;3.54;93.12;98755.89;1705100;82;21028;-94
2023/02/02 10:13:05;;;;;;;1.92;1.07;;;;;;;3.36;93.21;98760.78;1655440;84;20976;-90
2023/02/02 10:15:39;;;;;;;;;;;;;;;3.27;93.22;98767.52;1648597;84;20980;-88
2023/02/02 10:18:28;;;;;;;4.90;2.00;;;;;;;3.20;93.21;98773.78;1696790;82;20143;-90
2023/02/02 10:22:07;;;;;;;;;;;;;;;;;;;;;
2023/02/02 10:24:34;;;;;;;4.10;2.27;;;;;;;3.19;93.52;98780.27;1699963;81;21217;-93
2023/02/02 10:30:19;;;;;;;6.00;3.10;;;;;;;3.54;93.92;98791.57;1701315;82;21037;-92
2023/02/02 10:33:09;;;;;;;5.17;2.08;;;;;;;3.74;93.58;98785.73;1712257;82;20996;-92
2023/02/02 10:35:56;;;;;;;4.95;2.35;;;;;;;3.84;93.27;98797.02;1760374;80;21450;-91
2023/02/02 10:38:33;;;;;;;3.50;1.85;;;;;;;3.90;93.28;98800.70;1765983;80;20954;-93
2023/02/02 10:41:35;;;;;;;3.37;1.40;;;;;;;3.88;93.09;98805.08;1763637;80;20994;-90
2023/02/02 10:44:36;;;;;;;1.90;1.02;;;;;;;3.92;93.26;98815.67;1763296;80;20950;-91
2023/02/02 10:47:03;;;;;;;2.72;1.10;;;;;;;3.91;93.00;98821.75;1759923;80;21521;-89
2023/02/02 10:49:36;;;;;;;4.40;0.82;;;;;;;3.98;93.06;98829.70;1766768;79;20986;-91
2023/02/02 10:52:16;;;;;;;2.70;0.80;;;;;;;4.02;93.06;98829.97;1767186;80;21011;-91
2023/02/02 10:55:14;;;;;;;1.82;0.75;;;;;;;4.08;92.94;98836.20;1764350;80;20975;-93
2023/02/02 10:57:54;;;;;;;1.42;0.72;;;;;;;4.12;92.78;98827.47;1752584;80;20974;-91
2023/02/02 11:00:31;;;;;;;0.72;0.57;;;;;;;4.13;92.64;98842.06;1735107;80;21066;-90
2023/02/02 11:03:07;;;;;;;3.02;0.80;;;;;;;4.22;92.73;98842.19;1754956;80;20963;-91
2023/02/02 11:08:35;;;;;;;1.65;0.50;;;;;;;4.55;92.82;98846.59;1736604;80;20997;-89
2023/02/02 11:11:22;;;;;;;3.45;0.68;;;;;;;4.64;92.81;98859.17;1757136;80;21002;-88
2023/02/02 11:13:54;;;;;;;3.55;0.90;;;;;;;4.58;92.34;98859.41;1745067;80;21481;-90
2023/02/02 11:16:27;;;;;;;2.92;0.60;;;;;;;4.60;92.21;98867.95;1753997;80;21033;-87
2023/02/02 11:18:54;;;;;;;1.12;0.60;;;;;;;4.56;92.08;98872.83;1742406;80;21580;-91
2023/02/02 11:21:27;;;;;;;2.73;0.50;;;;;;;4.47;92.02;98871.42;1754174;80;21018;-89
2023/02/02 11:24:09;;;;;;;1.67;0.70;;;;;;;4.28;91.54;98883.77;1756642;80;21513;-89
2023/02/02 11:26:54;;;;;;;1.12;0.50;;;;;;;4.15;91.67;98891.95;1757155;80;21009;-91
2023/02/02 11:29:47;;;;;;;0.70;0.50;;;;;;;4.02;91.56;98898.42;1752647;80;21711;-88
2023/02/02 11:32:33;;;;;;;1.32;0.50;;;;;;;3.92;91.72;98902.20;1756088;80;21480;-89
2023/02/02 11:35:07;;;;;;;2.35;0.60;;;;;;;3.87;91.71;98910.12;1749809;80;21551;-89
2023/02/02 11:44:55;;;;;;;1.25;0.50;;;;;;;3.90;91.67;98919.51;1673328;84;20936;-86
2023/02/02 11:47:31;;;;;;;1.12;0.40;;;;;;;3.97;91.59;98932.59;1675613;83;20964;-86
2023/02/02 11:50:02;;;;;;;1.37;0.50;;;;;;;3.99;91.36;98934.69;1704050;80;72525;-87
2023/02/02 11:52:32;;;;;;;0.98;0.37;;;;;;;4.02;91.40;98944.92;1725735;80;20954;-89
2023/02/02 11:55:07;;;;;;;1.77;0.72;;;;;;;3.98;91.14;98946.77;1750404;80;21579;-87
2023/02/02 11:57:36;;;;;;;1.40;0.50;;;;;;;3.84;90.80;98955.84;1755904;79;21090;-88
2023/02/02 12:00:25;;;;;;;0.42;0.35;;;;;;;3.81;91.16;98957.64;1730493;80;20944;-87
2023/02/02 12:03:05;;;;;;;0.93;0.40;;;;;;;3.76;90.96;98951.77;1752434;80;21420;-88
2023/02/02 12:05:36;;;;;;;1.75;0.60;;;;;;;3.60;90.62;98957.02;1748546;80;20970;-88
2023/02/02 12:08:34;;;;;;;1.45;0.55;;;;;;;3.44;90.68;98955.34;1763684;80;21017;-90
2023/02/02 12:11:06;;;;;;;1.70;0.50;;;;;;;3.31;90.61;98967.80;1720528;80;20934;-93
2023/02/02 12:14:23;;;;;;;0.65;0.50;;;;;;;3.34;90.88;98974.14;1678855;83;21864;-88
2023/02/02 12:17:30;;;;;;;2.08;1.12;;;;;;;3.47;91.08;98975.06;1677560;83;21006;-89
2023/02/02 12:20:19;;;;;;;1.02;0.62;;;;;;;3.48;90.70;98992.25;1630190;86;21120;-89
2023/02/02 12:23:09;;;;;;;2.20;0.95;;;;;;;3.39;90.54;98989.92;1690520;83;21037;-91
2023/02/02 12:26:12;;;;;;;2.22;0.98;;;;;;;3.32;90.65;98991.41;1699877;82;21041;-87
2023/02/02 12:29:04;;;;;;;3.33;1.70;;;;;;;3.29;90.72;99000.52;1657751;85;21000;-88
2023/02/02 12:32:11;;;;;;;3.37;1.37;;;;;;;3.18;90.48;99002.57;1655160;84;21526;-89
2023/02/02 12:34:57;;;;;;;3.33;1.50;;;;;;;3.09;90.32;99008.00;1659497;84;21913;-91
2023/02/02 12:37:55;;;;;;;3.20;1.37;;;;;;;3.01;90.41;99015.10;1659259;84;21129;-94
